sensor_id;sensor_type;location;lat;lon;timestamp;P1;durP1;ratioP1;P2;durP2;ratioP2
20363;SDS011;10340;53.664;9.908;2023-02-13T00:00:15;14.73;;;9.77;;
20363;SDS011;10340;53.664;9.908;2023-02-13T00:02:46;10.60;;;9.10;;
20363;SDS011;10340;53.664;9.908;2023-02-13T00:05:13;10.77;;;8.38;;
20363;SDS011;10340;53.664;9.908;2023-02-13T00:07:40;13.80;;;10.70;;
20363;SDS011;10340;53.664;9.908;2023-02-13T00:10:07;11.80;;;8.68;;
20363;SDS011;10340;53.664;9.908;2023-02-13T00:12:35;15.45;;;11.00;;
20363;SDS011;10340;53.664;9.908;2023-02-13T00:15:02;12.88;;;10.00;;
20363;SDS011;10340;53.664;9.908;2023-02-13T00:17:29;11.32;;;8.82;;
20363;SDS011;10340;53.664;9.908;2023-02-13T00:19:58;11.25;;;8.68;;
20363;SDS011;10340;53.664;9.908;2023-02-13T00:22:25;14.55;;;10.27;;
20363;SDS011;10340;53.664;9.908;2023-02-13T00:24:52;13.80;;;10.25;;
20363;SDS011;10340;53.664;9.908;2023-02-13T00:27:19;12.75;;;9.60;;
20363;SDS011;10340;53.664;9.908;2023-02-13T00:29:46;14.98;;;10.70;;
20363;SDS011;10340;53.664;9.908;2023-02-13T00:32:13;12.77;;;10.15;;
20363;SDS011;10340;53.664;9.908;2023-02-13T00:34:40;13.90;;;10.90;;
20363;SDS011;10340;53.664;9.908;2023-02-13T00:37:09;12.75;;;10.05;;
20363;SDS011;10340;53.664;9.908;2023-02-13T00:39:36;12.30;;;9.80;;
20363;SDS011;10340;53.664;9.908;2023-02-13T00:42:03;14.95;;;11.07;;
20363;SDS011;10340;53.664;9.908;2023-02-13T00:44:30;13.60;;;10.65;;
20363;SDS011;10340;53.664;9.908;2023-02-13T00:46:57;13.15;;;10.55;;
20363;SDS011;10340;53.664;9.908;2023-02-13T00:49:24;17.08;;;11.43;;
20363;SDS011;10340;53.664;9.908;2023-02-13T00:51:51;13.55;;;10.30;;
20363;SDS011;10340;53.664;9.908;2023-02-13T00:54:20;13.70;;;10.80;;
20363;SDS011;10340;53.664;9.908;2023-02-13T00:56:47;14.35;;;11.57;;
20363;SDS011;10340;53.664;9.908;2023-02-13T00:59:14;14.43;;;11.05;;
20363;SDS011;10340;53.664;9.908;2023-02-13T01:01:41;17.30;;;11.70;;
20363;SDS011;10340;53.664;9.908;2023-02-13T01:04:08;17.20;;;12.02;;
20363;SDS011;10340;53.664;9.908;2023-02-13T01:06:35;17.02;;;12.35;;
20363;SDS011;10340;53.664;9.908;2023-02-13T01:09:02;15.85;;;12.15;;
20363;SDS011;10340;53.664;9.908;2023-02-13T01:11:31;15.60;;;12.80;;
20363;SDS011;10340;53.664;9.908;2023-02-13T01:13:58;17.52;;;12.20;;
20363;SDS011;10340;53.664;9.908;2023-02-13T01:16:25;18.23;;;13.38;;
20363;SDS011;10340;53.664;9.908;2023-02-13T01:18:52;18.55;;;13.05;;
20363;SDS011;10340;53.664;9.908;2023-02-13T01:21:20;14.93;;;11.35;;
20363;SDS011;10340;53.664;9.908;2023-02-13T01:23:48;14.68;;;11.13;;
20363;SDS011;10340;53.664;9.908;2023-02-13T01:26:17;14.57;;;11.20;;
20363;SDS011;10340;53.664;9.908;2023-02-13T01:28:46;15.13;;;11.52;;
20363;SDS011;10340;53.664;9.908;2023-02-13T01:31:16;16.35;;;11.93;;
20363;SDS011;10340;53.664;9.908;2023-02-13T01:33:43;16.80;;;12.68;;
20363;SDS011;10340;53.664;9.908;2023-02-13T01:36:11;17.25;;;11.93;;
20363;SDS011;10340;53.664;9.908;2023-02-13T01:38:39;17.45;;;12.25;;
20363;SDS011;10340;53.664;9.908;2023-02-13T01:41:06;14.52;;;11.80;;
20363;SDS011;10340;53.664;9.908;2023-02-13T01:43:44;16.17;;;11.88;;
20363;SDS011;10340;53.664;9.908;2023-02-13T01:46:15;14.20;;;11.55;;
20363;SDS011;10340;53.664;9.908;2023-02-13T01:48:46;15.77;;;11.70;;
20363;SDS011;10340;53.664;9.908;2023-02-13T01:51:15;17.10;;;11.80;;
20363;SDS011;10340;53.664;9.908;2023-02-13T01:53:45;17.88;;;13.32;;
20363;SDS011;10340;53.664;9.908;2023-02-13T01:56:19;17.83;;;13.25;;
20363;SDS011;10340;53.664;9.908;2023-02-13T01:58:50;18.48;;;13.50;;
20363;SDS011;10340;53.664;9.908;2023-02-13T02:01:21;17.40;;;12.52;;
20363;SDS011;10340;53.664;9.908;2023-02-13T02:03:51;18.25;;;12.32;;
20363;SDS011;10340;53.664;9.908;2023-02-13T02:06:22;17.70;;;11.63;;
20363;SDS011;10340;53.664;9.908;2023-02-13T02:08:52;16.27;;;11.48;;
20363;SDS011;10340;53.664;9.908;2023-02-13T02:11:24;19.23;;;12.15;;
20363;SDS011;10340;53.664;9.908;2023-02-13T02:13:58;17.88;;;12.85;;
20363;SDS011;10340;53.664;9.908;2023-02-13T02:16:27;17.83;;;12.38;;
20363;SDS011;10340;53.664;9.908;2023-02-13T02:18:54;15.35;;;11.50;;
20363;SDS011;10340;53.664;9.908;2023-02-13T02:30:39;16.80;;;11.95;;
20363;SDS011;10340;53.664;9.908;2023-02-13T02:33:23;16.60;;;12.23;;
20363;SDS011;10340;53.664;9.908;2023-02-13T02:36:00;16.65;;;12.05;;
20363;SDS011;10340;53.664;9.908;2023-02-13T02:38:43;16.27;;;12.27;;
20363;SDS011;10340;53.664;9.908;2023-02-13T02:41:23;17.90;;;12.73;;
20363;SDS011;10340;53.664;9.908;2023-02-13T02:44:22;18.15;;;12.82;;
20363;SDS011;10340;53.664;9.908;2023-02-13T02:46:57;18.83;;;12.35;;
20363;SDS011;10340;53.664;9.908;2023-02-13T02:49:59;18.90;;;13.13;;
20363;SDS011;10340;53.664;9.908;2023-02-13T02:52:39;17.35;;;11.80;;
20363;SDS011;10340;53.664;9.908;2023-02-13T02:55:15;17.60;;;12.60;;
20363;SDS011;10340;53.664;9.908;2023-02-13T02:57:48;15.88;;;12.25;;
20363;SDS011;10340;53.664;9.908;2023-02-13T03:00:50;16.95;;;12.43;;
20363;SDS011;10340;53.664;9.908;2023-02-13T03:03:37;18.58;;;12.15;;
20363;SDS011;10340;53.664;9.908;2023-02-13T03:06:26;16.98;;;12.25;;
20363;SDS011;10340;53.664;9.908;2023-02-13T03:09:01;16.73;;;12.38;;
20363;SDS011;10340;53.664;9.908;2023-02-13T03:11:50;16.10;;;12.55;;
20363;SDS011;10340;53.664;9.908;2023-02-13T03:14:35;15.77;;;11.45;;
20363;SDS011;10340;53.664;9.908;2023-02-13T03:17:03;17.85;;;12.50;;
20363;SDS011;10340;53.664;9.908;2023-02-13T03:19:52;16.00;;;12.73;;
20363;SDS011;10340;53.664;9.908;2023-02-13T03:22:44;18.02;;;12.00;;
20363;SDS011;10340;53.664;9.908;2023-02-13T03:25:24;17.38;;;12.25;;
20363;SDS011;10340;53.664;9.908;2023-02-13T03:28:02;13.98;;;11.35;;
20363;SDS011;10340;53.664;9.908;2023-02-13T03:30:59;14.13;;;11.43;;
20363;SDS011;10340;53.664;9.908;2023-02-13T03:33:43;15.40;;;11.27;;
20363;SDS011;10340;53.664;9.908;2023-02-13T03:36:25;16.20;;;12.25;;
20363;SDS011;10340;53.664;9.908;2023-02-13T03:39:19;16.88;;;11.80;;
20363;SDS011;10340;53.664;9.908;2023-02-13T03:41:50;15.10;;;11.48;;
20363;SDS011;10340;53.664;9.908;2023-02-13T03:44:24;15.05;;;12.18;;
20363;SDS011;10340;53.664;9.908;2023-02-13T03:46:57;15.45;;;10.85;;
20363;SDS011;10340;53.664;9.908;2023-02-13T03:49:28;14.63;;;11.18;;
20363;SDS011;10340;53.664;9.908;2023-02-13T03:52:19;13.77;;;10.45;;
20363;SDS011;10340;53.664;9.908;2023-02-13T03:54:51;14.85;;;10.48;;
20363;SDS011;10340;53.664;9.908;2023-02-13T03:57:40;11.57;;;9.77;;
20363;SDS011;10340;53.664;9.908;2023-02-13T04:00:33;13.65;;;10.80;;
20363;SDS011;10340;53.664;9.908;2023-02-13T04:03:06;14.45;;;10.50;;
20363;SDS011;10340;53.664;9.908;2023-02-13T04:05:39;14.10;;;10.32;;
20363;SDS011;10340;53.664;9.908;2023-02-13T04:08:08;14.00;;;11.13;;
20363;SDS011;10340;53.664;9.908;2023-02-13T04:10:38;13.23;;;10.23;;
20363;SDS011;10340;53.664;9.908;2023-02-13T04:13:12;13.65;;;10.82;;
20363;SDS011;10340;53.664;9.908;2023-02-13T04:15:45;12.73;;;10.80;;
20363;SDS011;10340;53.664;9.908;2023-02-13T04:18:17;14.27;;;10.88;;
20363;SDS011;10340;53.664;9.908;2023-02-13T04:20:47;13.00;;;10.35;;
20363;SDS011;10340;53.664;9.908;2023-02-13T04:23:14;13.40;;;9.90;;
20363;SDS011;10340;53.664;9.908;2023-02-13T04:25:44;15.80;;;11.10;;
20363;SDS011;10340;53.664;9.908;2023-02-13T04:28:15;13.93;;;11.07;;
20363;SDS011;10340;53.664;9.908;2023-02-13T04:30:42;12.98;;;10.55;;
20363;SDS011;10340;53.664;9.908;2023-02-13T04:33:09;13.98;;;11.23;;
20363;SDS011;10340;53.664;9.908;2023-02-13T04:35:36;13.10;;;10.18;;
20363;SDS011;10340;53.664;9.908;2023-02-13T04:38:03;13.65;;;10.90;;
20363;SDS011;10340;53.664;9.908;2023-02-13T04:40:30;13.15;;;10.98;;
20363;SDS011;10340;53.664;9.908;2023-02-13T04:42:58;14.43;;;10.80;;
20363;SDS011;10340;53.664;9.908;2023-02-13T04:45:25;14.18;;;10.65;;
20363;SDS011;10340;53.664;9.908;2023-02-13T04:47:53;13.18;;;10.88;;
20363;SDS011;10340;53.664;9.908;2023-02-13T04:50:21;15.27;;;11.05;;
20363;SDS011;10340;53.664;9.908;2023-02-13T04:52:49;17.13;;;12.32;;
20363;SDS011;10340;53.664;9.908;2023-02-13T04:55:18;18.70;;;12.32;;
20363;SDS011;10340;53.664;9.908;2023-02-13T04:57:45;12.93;;;10.40;;
20363;SDS011;10340;53.664;9.908;2023-02-13T05:00:14;12.75;;;10.07;;
20363;SDS011;10340;53.664;9.908;2023-02-13T05:02:41;14.88;;;11.65;;
20363;SDS011;10340;53.664;9.908;2023-02-13T05:05:08;12.90;;;10.85;;
20363;SDS011;10340;53.664;9.908;2023-02-13T05:07:35;13.55;;;10.98;;
20363;SDS011;10340;53.664;9.908;2023-02-13T05:10:02;13.77;;;11.13;;
20363;SDS011;10340;53.664;9.908;2023-02-13T05:12:30;12.95;;;10.30;;
20363;SDS011;10340;53.664;9.908;2023-02-13T05:14:57;12.65;;;9.57;;
20363;SDS011;10340;53.664;9.908;2023-02-13T05:17:25;12.18;;;9.27;;
20363;SDS011;10340;53.664;9.908;2023-02-13T05:19:52;12.80;;;9.98;;
20363;SDS011;10340;53.664;9.908;2023-02-13T05:22:19;15.95;;;11.27;;
20363;SDS011;10340;53.664;9.908;2023-02-13T05:25:04;12.27;;;9.93;;
20363;SDS011;10340;53.664;9.908;2023-02-13T05:27:31;12.98;;;9.77;;
20363;SDS011;10340;53.664;9.908;2023-02-13T05:29:58;14.60;;;9.98;;
20363;SDS011;10340;53.664;9.908;2023-02-13T05:32:26;12.82;;;10.35;;
20363;SDS011;10340;53.664;9.908;2023-02-13T05:34:53;12.32;;;9.80;;
20363;SDS011;10340;53.664;9.908;2023-02-13T05:37:20;11.95;;;9.48;;
20363;SDS011;10340;53.664;9.908;2023-02-13T05:39:47;12.02;;;10.75;;
20363;SDS011;10340;53.664;9.908;2023-02-13T05:42:14;12.00;;;10.32;;
20363;SDS011;10340;53.664;9.908;2023-02-13T05:44:41;12.35;;;10.05;;
20363;SDS011;10340;53.664;9.908;2023-02-13T05:47:08;11.98;;;10.45;;
20363;SDS011;10340;53.664;9.908;2023-02-13T05:49:36;10.88;;;9.30;;
20363;SDS011;10340;53.664;9.908;2023-02-13T05:52:03;14.85;;;11.82;;
20363;SDS011;10340;53.664;9.908;2023-02-13T05:54:31;13.55;;;10.93;;
20363;SDS011;10340;53.664;9.908;2023-02-13T05:56:58;15.10;;;10.60;;
20363;SDS011;10340;53.664;9.908;2023-02-13T05:59:25;13.10;;;10.55;;
20363;SDS011;10340;53.664;9.908;2023-02-13T06:01:52;12.63;;;10.38;;
20363;SDS011;10340;53.664;9.908;2023-02-13T06:04:19;10.93;;;9.23;;
20363;SDS011;10340;53.664;9.908;2023-02-13T06:06:47;14.07;;;10.80;;
20363;SDS011;10340;53.664;9.908;2023-02-13T06:09:14;13.43;;;10.77;;
20363;SDS011;10340;53.664;9.908;2023-02-13T06:11:41;16.33;;;11.85;;
20363;SDS011;10340;53.664;9.908;2023-02-13T06:14:08;15.13;;;11.02;;
20363;SDS011;10340;53.664;9.908;2023-02-13T06:16:36;13.35;;;10.60;;
20363;SDS011;10340;53.664;9.908;2023-02-13T06:19:03;14.32;;;10.73;;
20363;SDS011;10340;53.664;9.908;2023-02-13T06:21:30;14.18;;;10.75;;
20363;SDS011;10340;53.664;9.908;2023-02-13T06:24:03;14.80;;;11.43;;
20363;SDS011;10340;53.664;9.908;2023-02-13T06:26:31;13.55;;;11.48;;
20363;SDS011;10340;53.664;9.908;2023-02-13T06:28:58;14.05;;;11.68;;
20363;SDS011;10340;53.664;9.908;2023-02-13T06:31:25;15.35;;;12.60;;
20363;SDS011;10340;53.664;9.908;2023-02-13T06:33:52;14.23;;;11.48;;
20363;SDS011;10340;53.664;9.908;2023-02-13T06:36:19;17.88;;;12.88;;
20363;SDS011;10340;53.664;9.908;2023-02-13T06:38:46;17.27;;;12.40;;
20363;SDS011;10340;53.664;9.908;2023-02-13T06:41:15;16.02;;;11.40;;
20363;SDS011;10340;53.664;9.908;2023-02-13T06:43:42;16.17;;;12.20;;
20363;SDS011;10340;53.664;9.908;2023-02-13T06:46:09;16.38;;;13.40;;
20363;SDS011;10340;53.664;9.908;2023-02-13T06:48:36;16.05;;;12.05;;
20363;SDS011;10340;53.664;9.908;2023-02-13T06:51:03;14.63;;;11.73;;
20363;SDS011;10340;53.664;9.908;2023-02-13T06:53:30;15.73;;;11.60;;
20363;SDS011;10340;53.664;9.908;2023-02-13T06:55:57;15.90;;;11.82;;
20363;SDS011;10340;53.664;9.908;2023-02-13T06:58:26;15.18;;;12.02;;
20363;SDS011;10340;53.664;9.908;2023-02-13T07:00:53;16.52;;;12.00;;
20363;SDS011;10340;53.664;9.908;2023-02-13T07:03:20;14.63;;;11.32;;
20363;SDS011;10340;53.664;9.908;2023-02-13T07:05:47;14.90;;;10.77;;
20363;SDS011;10340;53.664;9.908;2023-02-13T07:08:16;13.90;;;10.82;;
20363;SDS011;10340;53.664;9.908;2023-02-13T07:10:43;15.82;;;10.93;;
20363;SDS011;10340;53.664;9.908;2023-02-13T07:13:10;14.10;;;11.93;;
20363;SDS011;10340;53.664;9.908;2023-02-13T07:15:39;15.52;;;11.82;;
20363;SDS011;10340;53.664;9.908;2023-02-13T07:18:06;15.00;;;11.82;;
20363;SDS011;10340;53.664;9.908;2023-02-13T07:20:33;15.50;;;11.40;;
20363;SDS011;10340;53.664;9.908;2023-02-13T07:23:00;13.40;;;11.15;;
20363;SDS011;10340;53.664;9.908;2023-02-13T07:25:29;12.48;;;10.38;;
20363;SDS011;10340;53.664;9.908;2023-02-13T07:27:59;13.27;;;10.48;;
20363;SDS011;10340;53.664;9.908;2023-02-13T07:30:26;13.15;;;10.82;;
20363;SDS011;10340;53.664;9.908;2023-02-13T07:32:58;14.63;;;11.18;;
20363;SDS011;10340;53.664;9.908;2023-02-13T07:35:25;14.30;;;10.68;;
20363;SDS011;10340;53.664;9.908;2023-02-13T07:37:52;15.48;;;11.85;;
20363;SDS011;10340;53.664;9.908;2023-02-13T07:40:20;14.48;;;11.73;;
20363;SDS011;10340;53.664;9.908;2023-02-13T07:42:47;16.67;;;12.40;;
20363;SDS011;10340;53.664;9.908;2023-02-13T07:45:14;16.48;;;11.98;;
20363;SDS011;10340;53.664;9.908;2023-02-13T07:47:41;16.40;;;11.88;;
20363;SDS011;10340;53.664;9.908;2023-02-13T07:50:11;16.42;;;11.70;;
20363;SDS011;10340;53.664;9.908;2023-02-13T07:52:38;18.20;;;13.00;;
20363;SDS011;10340;53.664;9.908;2023-02-13T07:55:05;19.42;;;13.02;;
20363;SDS011;10340;53.664;9.908;2023-02-13T07:57:35;18.50;;;12.50;;
20363;SDS011;10340;53.664;9.908;2023-02-13T08:00:02;17.42;;;12.93;;
20363;SDS011;10340;53.664;9.908;2023-02-13T08:02:30;17.30;;;11.82;;
20363;SDS011;10340;53.664;9.908;2023-02-13T08:04:57;18.92;;;12.48;;
20363;SDS011;10340;53.664;9.908;2023-02-13T08:07:26;20.02;;;12.55;;
20363;SDS011;10340;53.664;9.908;2023-02-13T08:09:53;19.20;;;12.80;;
20363;SDS011;10340;53.664;9.908;2023-02-13T08:12:37;17.25;;;11.55;;
20363;SDS011;10340;53.664;9.908;2023-02-13T08:15:04;16.92;;;12.40;;
20363;SDS011;10340;53.664;9.908;2023-02-13T08:17:32;16.60;;;12.75;;
20363;SDS011;10340;53.664;9.908;2023-02-13T08:19:59;17.23;;;12.63;;
20363;SDS011;10340;53.664;9.908;2023-02-13T08:22:28;17.88;;;13.73;;
20363;SDS011;10340;53.664;9.908;2023-02-13T08:24:55;13.25;;;11.07;;
20363;SDS011;10340;53.664;9.908;2023-02-13T08:27:22;14.98;;;11.95;;
20363;SDS011;10340;53.664;9.908;2023-02-13T08:29:49;15.60;;;11.65;;
20363;SDS011;10340;53.664;9.908;2023-02-13T08:32:16;15.25;;;11.63;;
20363;SDS011;10340;53.664;9.908;2023-02-13T08:34:43;16.65;;;12.63;;
20363;SDS011;10340;53.664;9.908;2023-02-13T08:37:10;17.10;;;12.63;;
20363;SDS011;10340;53.664;9.908;2023-02-13T08:39:39;15.82;;;12.20;;
20363;SDS011;10340;53.664;9.908;2023-02-13T08:42:06;18.30;;;12.63;;
20363;SDS011;10340;53.664;9.908;2023-02-13T08:44:33;16.77;;;11.82;;
20363;SDS011;10340;53.664;9.908;2023-02-13T08:47:01;16.20;;;12.45;;
20363;SDS011;10340;53.664;9.908;2023-02-13T08:49:28;14.57;;;11.90;;
20363;SDS011;10340;53.664;9.908;2023-02-13T08:51:55;16.85;;;12.60;;
20363;SDS011;10340;53.664;9.908;2023-02-13T08:54:22;15.25;;;11.57;;
20363;SDS011;10340;53.664;9.908;2023-02-13T08:56:51;16.38;;;11.73;;
20363;SDS011;10340;53.664;9.908;2023-02-13T08:59:18;17.38;;;12.00;;
20363;SDS011;10340;53.664;9.908;2023-02-13T09:01:45;17.10;;;13.13;;
20363;SDS011;10340;53.664;9.908;2023-02-13T09:04:12;18.65;;;12.60;;
20363;SDS011;10340;53.664;9.908;2023-02-13T09:06:42;16.27;;;11.93;;
20363;SDS011;10340;53.664;9.908;2023-02-13T09:09:09;16.08;;;12.50;;
20363;SDS011;10340;53.664;9.908;2023-02-13T09:11:37;14.32;;;11.70;;
20363;SDS011;10340;53.664;9.908;2023-02-13T09:14:05;17.45;;;12.20;;
20363;SDS011;10340;53.664;9.908;2023-02-13T09:16:32;18.30;;;13.00;;
20363;SDS011;10340;53.664;9.908;2023-02-13T09:18:59;14.23;;;11.15;;
20363;SDS011;10340;53.664;9.908;2023-02-13T09:21:26;16.65;;;12.13;;
20363;SDS011;10340;53.664;9.908;2023-02-13T09:23:55;16.45;;;12.90;;
20363;SDS011;10340;53.664;9.908;2023-02-13T09:26:22;17.10;;;11.63;;
20363;SDS011;10340;53.664;9.908;2023-02-13T09:28:49;16.55;;;11.82;;
20363;SDS011;10340;53.664;9.908;2023-02-13T09:31:18;15.60;;;11.68;;
20363;SDS011;10340;53.664;9.908;2023-02-13T09:33:48;16.42;;;12.27;;
20363;SDS011;10340;53.664;9.908;2023-02-13T09:36:15;18.13;;;12.80;;
20363;SDS011;10340;53.664;9.908;2023-02-13T09:38:44;14.48;;;11.82;;
20363;SDS011;10340;53.664;9.908;2023-02-13T09:41:12;16.63;;;12.68;;
20363;SDS011;10340;53.664;9.908;2023-02-13T09:43:42;16.00;;;12.10;;
20363;SDS011;10340;53.664;9.908;2023-02-13T09:46:13;13.40;;;11.07;;
20363;SDS011;10340;53.664;9.908;2023-02-13T09:48:45;16.45;;;12.35;;
20363;SDS011;10340;53.664;9.908;2023-02-13T09:51:17;17.08;;;12.55;;
20363;SDS011;10340;53.664;9.908;2023-02-13T09:53:55;15.30;;;10.85;;
20363;SDS011;10340;53.664;9.908;2023-02-13T09:56:34;16.67;;;11.93;;
20363;SDS011;10340;53.664;9.908;2023-02-13T09:59:07;17.20;;;12.20;;
20363;SDS011;10340;53.664;9.908;2023-02-13T10:01:46;13.75;;;10.70;;
20363;SDS011;10340;53.664;9.908;2023-02-13T10:04:24;14.38;;;11.45;;
20363;SDS011;10340;53.664;9.908;2023-02-13T10:06:58;16.27;;;11.50;;
20363;SDS011;10340;53.664;9.908;2023-02-13T10:09:38;18.95;;;11.95;;
20363;SDS011;10340;53.664;9.908;2023-02-13T10:12:16;17.27;;;11.75;;
20363;SDS011;10340;53.664;9.908;2023-02-13T10:14:57;15.00;;;11.90;;
20363;SDS011;10340;53.664;9.908;2023-02-13T10:17:35;16.85;;;12.73;;
20363;SDS011;10340;53.664;9.908;2023-02-13T10:20:14;15.73;;;11.80;;
20363;SDS011;10340;53.664;9.908;2023-02-13T10:22:51;15.32;;;11.85;;
20363;SDS011;10340;53.664;9.908;2023-02-13T10:25:21;14.13;;;10.75;;
20363;SDS011;10340;53.664;9.908;2023-02-13T10:28:10;15.40;;;10.77;;
20363;SDS011;10340;53.664;9.908;2023-02-13T10:30:45;14.02;;;11.18;;
20363;SDS011;10340;53.664;9.908;2023-02-13T10:33:16;13.68;;;11.10;;
20363;SDS011;10340;53.664;9.908;2023-02-13T10:35:50;15.32;;;10.63;;
20363;SDS011;10340;53.664;9.908;2023-02-13T10:38:23;13.35;;;10.38;;
20363;SDS011;10340;53.664;9.908;2023-02-13T10:41:02;14.73;;;10.40;;
20363;SDS011;10340;53.664;9.908;2023-02-13T10:43:35;17.60;;;11.57;;
20363;SDS011;10340;53.664;9.908;2023-02-13T10:46:10;15.20;;;11.20;;
20363;SDS011;10340;53.664;9.908;2023-02-13T10:48:49;15.68;;;11.40;;
20363;SDS011;10340;53.664;9.908;2023-02-13T10:51:27;16.27;;;11.85;;
20363;SDS011;10340;53.664;9.908;2023-02-13T10:54:12;13.77;;;10.70;;
20363;SDS011;10340;53.664;9.908;2023-02-13T10:56:57;16.15;;;11.95;;
20363;SDS011;10340;53.664;9.908;2023-02-13T10:59:38;14.38;;;11.02;;
20363;SDS011;10340;53.664;9.908;2023-02-13T11:02:27;17.30;;;11.43;;
20363;SDS011;10340;53.664;9.908;2023-02-13T11:04:58;15.63;;;11.82;;
20363;SDS011;10340;53.664;9.908;2023-02-13T11:07:28;15.30;;;11.88;;
20363;SDS011;10340;53.664;9.908;2023-02-13T11:09:58;19.75;;;12.35;;
20363;SDS011;10340;53.664;9.908;2023-02-13T11:12:29;20.58;;;12.63;;
20363;SDS011;10340;53.664;9.908;2023-02-13T11:14:57;19.30;;;12.35;;
20363;SDS011;10340;53.664;9.908;2023-02-13T11:17:26;20.80;;;12.60;;
20363;SDS011;10340;53.664;9.908;2023-02-13T11:19:56;17.10;;;11.15;;
20363;SDS011;10340;53.664;9.908;2023-02-13T11:22:26;18.05;;;11.73;;
20363;SDS011;10340;53.664;9.908;2023-02-13T11:24:58;15.20;;;11.90;;
20363;SDS011;10340;53.664;9.908;2023-02-13T11:27:29;15.68;;;11.40;;
20363;SDS011;10340;53.664;9.908;2023-02-13T11:29:59;16.33;;;12.18;;
20363;SDS011;10340;53.664;9.908;2023-02-13T11:32:30;17.52;;;11.90;;
20363;SDS011;10340;53.664;9.908;2023-02-13T11:34:59;15.40;;;12.07;;
20363;SDS011;10340;53.664;9.908;2023-02-13T11:37:58;17.10;;;13.68;;
20363;SDS011;10340;53.664;9.908;2023-02-13T11:40:48;15.55;;;12.00;;
20363;SDS011;10340;53.664;9.908;2023-02-13T11:43:17;17.30;;;12.18;;
20363;SDS011;10340;53.664;9.908;2023-02-13T11:48:41;18.73;;;12.73;;
20363;SDS011;10340;53.664;9.908;2023-02-13T11:51:48;16.50;;;11.57;;
20363;SDS011;10340;53.664;9.908;2023-02-13T11:54:27;15.25;;;11.57;;
20363;SDS011;10340;53.664;9.908;2023-02-13T11:56:58;17.48;;;12.32;;
20363;SDS011;10340;53.664;9.908;2023-02-13T11:59:29;17.70;;;13.18;;
20363;SDS011;10340;53.664;9.908;2023-02-13T12:02:03;19.90;;;13.23;;
20363;SDS011;10340;53.664;9.908;2023-02-13T12:04:43;15.73;;;12.85;;
20363;SDS011;10340;53.664;9.908;2023-02-13T12:07:14;19.58;;;13.27;;
20363;SDS011;10340;53.664;9.908;2023-02-13T12:09:49;17.08;;;13.40;;
20363;SDS011;10340;53.664;9.908;2023-02-13T12:12:31;20.38;;;13.32;;
20363;SDS011;10340;53.664;9.908;2023-02-13T12:15:20;18.55;;;13.73;;
20363;SDS011;10340;53.664;9.908;2023-02-13T12:18:01;20.45;;;14.20;;
20363;SDS011;10340;53.664;9.908;2023-02-13T12:20:44;19.00;;;13.38;;
20363;SDS011;10340;53.664;9.908;2023-02-13T12:23:21;17.55;;;13.80;;
20363;SDS011;10340;53.664;9.908;2023-02-13T12:26:08;22.10;;;14.20;;
20363;SDS011;10340;53.664;9.908;2023-02-13T12:29:11;23.70;;;14.77;;
20363;SDS011;10340;53.664;9.908;2023-02-13T12:32:20;20.10;;;14.27;;
20363;SDS011;10340;53.664;9.908;2023-02-13T12:41:59;17.70;;;12.02;;
20363;SDS011;10340;53.664;9.908;2023-02-13T12:47:35;18.83;;;12.48;;
20363;SDS011;10340;53.664;9.908;2023-02-13T12:50:23;18.25;;;12.52;;
20363;SDS011;10340;53.664;9.908;2023-02-13T12:53:01;17.38;;;12.15;;
20363;SDS011;10340;53.664;9.908;2023-02-13T12:56:11;17.73;;;12.43;;
20363;SDS011;10340;53.664;9.908;2023-02-13T13:01:53;19.15;;;13.10;;
20363;SDS011;10340;53.664;9.908;2023-02-13T13:04:53;17.17;;;12.20;;
20363;SDS011;10340;53.664;9.908;2023-02-13T13:07:36;18.63;;;11.77;;
20363;SDS011;10340;53.664;9.908;2023-02-13T13:13:09;20.13;;;13.98;;
20363;SDS011;10340;53.664;9.908;2023-02-13T13:15:47;20.58;;;13.35;;
20363;SDS011;10340;53.664;9.908;2023-02-13T13:18:24;18.52;;;13.05;;
20363;SDS011;10340;53.664;9.908;2023-02-13T13:21:03;19.70;;;13.25;;
20363;SDS011;10340;53.664;9.908;2023-02-13T13:23:42;22.98;;;13.18;;
20363;SDS011;10340;53.664;9.908;2023-02-13T13:26:15;20.02;;;13.05;;
20363;SDS011;10340;53.664;9.908;2023-02-13T13:28:49;18.80;;;12.77;;
20363;SDS011;10340;53.664;9.908;2023-02-13T13:31:20;21.38;;;13.63;;
20363;SDS011;10340;53.664;9.908;2023-02-13T13:33:50;21.92;;;13.18;;
20363;SDS011;10340;53.664;9.908;2023-02-13T13:36:24;21.77;;;13.85;;
20363;SDS011;10340;53.664;9.908;2023-02-13T13:39:00;19.85;;;13.05;;
20363;SDS011;10340;53.664;9.908;2023-02-13T13:41:33;18.55;;;13.05;;
20363;SDS011;10340;53.664;9.908;2023-02-13T13:44:14;18.92;;;13.60;;
20363;SDS011;10340;53.664;9.908;2023-02-13T13:46:54;18.83;;;13.57;;
20363;SDS011;10340;53.664;9.908;2023-02-13T13:49:29;19.60;;;13.55;;
20363;SDS011;10340;53.664;9.908;2023-02-13T13:52:09;21.90;;;14.18;;
20363;SDS011;10340;53.664;9.908;2023-02-13T13:54:47;21.15;;;13.77;;
20363;SDS011;10340;53.664;9.908;2023-02-13T13:57:16;20.17;;;14.07;;
20363;SDS011;10340;53.664;9.908;2023-02-13T13:59:55;20.27;;;13.88;;
20363;SDS011;10340;53.664;9.908;2023-02-13T14:02:48;21.45;;;13.85;;
20363;SDS011;10340;53.664;9.908;2023-02-13T14:13:36;19.10;;;14.10;;
20363;SDS011;10340;53.664;9.908;2023-02-13T14:16:11;19.10;;;13.18;;
20363;SDS011;10340;53.664;9.908;2023-02-13T14:21:53;20.88;;;14.55;;
20363;SDS011;10340;53.664;9.908;2023-02-13T14:24:55;19.75;;;13.57;;
20363;SDS011;10340;53.664;9.908;2023-02-13T14:27:42;21.00;;;14.70;;
20363;SDS011;10340;53.664;9.908;2023-02-13T14:30:27;20.52;;;15.00;;
20363;SDS011;10340;53.664;9.908;2023-02-13T14:32:58;22.25;;;13.73;;
20363;SDS011;10340;53.664;9.908;2023-02-13T14:35:32;19.55;;;13.30;;
20363;SDS011;10340;53.664;9.908;2023-02-13T14:38:02;18.45;;;12.75;;
20363;SDS011;10340;53.664;9.908;2023-02-13T14:40:43;18.60;;;13.55;;
20363;SDS011;10340;53.664;9.908;2023-02-13T14:46:02;20.17;;;13.65;;
20363;SDS011;10340;53.664;9.908;2023-02-13T14:48:36;20.15;;;14.45;;
20363;SDS011;10340;53.664;9.908;2023-02-13T14:51:14;20.15;;;13.20;;
20363;SDS011;10340;53.664;9.908;2023-02-13T14:53:53;20.27;;;13.18;;
20363;SDS011;10340;53.664;9.908;2023-02-13T14:56:24;21.70;;;13.43;;
20363;SDS011;10340;53.664;9.908;2023-02-13T14:58:52;19.67;;;14.25;;
20363;SDS011;10340;53.664;9.908;2023-02-13T15:01:25;19.30;;;13.90;;
20363;SDS011;10340;53.664;9.908;2023-02-13T15:03:58;18.55;;;13.73;;
20363;SDS011;10340;53.664;9.908;2023-02-13T15:06:38;16.85;;;12.32;;
20363;SDS011;10340;53.664;9.908;2023-02-13T15:09:16;18.63;;;12.38;;
20363;SDS011;10340;53.664;9.908;2023-02-13T15:11:49;18.80;;;12.55;;
20363;SDS011;10340;53.664;9.908;2023-02-13T15:14:23;17.08;;;12.48;;
20363;SDS011;10340;53.664;9.908;2023-02-13T15:16:57;18.02;;;11.90;;
20363;SDS011;10340;53.664;9.908;2023-02-13T15:19:29;17.35;;;11.38;;
20363;SDS011;10340;53.664;9.908;2023-02-13T15:22:00;14.95;;;11.85;;
20363;SDS011;10340;53.664;9.908;2023-02-13T15:24:32;18.38;;;11.98;;
20363;SDS011;10340;53.664;9.908;2023-02-13T15:27:14;15.27;;;11.57;;
20363;SDS011;10340;53.664;9.908;2023-02-13T15:29:52;17.08;;;11.57;;
20363;SDS011;10340;53.664;9.908;2023-02-13T15:32:23;16.75;;;12.25;;
20363;SDS011;10340;53.664;9.908;2023-02-13T15:34:53;16.38;;;11.98;;
20363;SDS011;10340;53.664;9.908;2023-02-13T15:37:23;18.45;;;11.75;;